createdAt,value
2023-02-03T00:02:57.091Z,61.05
2023-02-03T00:06:01.001Z,60.91
2023-02-03T00:09:03.387Z,60.98
2023-02-03T00:12:06.287Z,60.76
2023-02-03T00:15:09.224Z,62.17
2023-02-03T00:18:11.529Z,60.74
2023-02-03T00:21:15.236Z,61.86
2023-02-03T00:24:20.440Z,60.36
2023-02-03T00:27:22.715Z,61.64
2023-02-03T00:30:25.206Z,61.11
2023-02-03T00:33:27.708Z,61.59
2023-02-03T00:36:30.077Z,60.97
2023-02-03T00:39:32.432Z,59.71
2023-02-03T00:42:35.803Z,60.83
2023-02-03T00:45:38.100Z,59.63
2023-02-03T00:48:40.828Z,59.95
2023-02-03T00:51:43.139Z,58.97
2023-02-03T00:54:45.481Z,58.73
2023-02-03T00:57:47.832Z,59.40
2023-02-03T01:00:50.175Z,57.39
2023-02-03T01:03:56.261Z,59.17
2023-02-03T01:06:59.909Z,59.34
2023-02-03T01:10:02.211Z,58.50
2023-02-03T01:13:04.559Z,59.17
2023-02-03T01:16:11.944Z,58.59
2023-02-03T01:19:14.925Z,57.89
2023-02-03T01:22:17.490Z,58.16
2023-02-03T01:25:19.796Z,57.67
2023-02-03T01:28:22.424Z,57.83
2023-02-03T01:31:30.285Z,56.72
2023-02-03T01:34:32.803Z,56.40
2023-02-03T01:37:35.096Z,56.45
2023-02-03T01:40:46.003Z,56.41
2023-02-03T01:43:54.966Z,55.97
2023-02-03T01:46:57.404Z,55.59
2023-02-03T01:50:19.831Z,55.73
2023-02-03T01:53:22.542Z,55.59
2023-02-03T01:56:28.670Z,55.79
2023-02-03T01:59:32.138Z,55.92
2023-02-03T02:02:35.726Z,54.11
2023-02-03T02:05:46.865Z,54.62
2023-02-03T02:08:51.595Z,53.76
2023-02-03T02:11:53.936Z,54.48
2023-02-03T02:14:56.979Z,54.12
2023-02-03T02:18:25.476Z,54.13
2023-02-03T02:21:54.361Z,53.97
2023-02-03T02:25:27.504Z,52.59
2023-02-03T02:29:17.644Z,52.50
2023-02-03T02:32:52.208Z,52.57
2023-02-03T02:36:21.751Z,52.53
2023-02-03T02:39:34.057Z,52.70
2023-02-03T02:43:00.831Z,53.30
2023-02-03T02:46:09.498Z,52.46
2023-02-03T02:49:30.162Z,52.24
2023-02-03T02:52:36.461Z,52.03
2023-02-03T02:55:40.342Z,52.12
2023-02-03T02:58:46.670Z,51.90
2023-02-03T03:01:49.132Z,51.76
2023-02-03T03:04:51.660Z,51.44
2023-02-03T03:07:59.601Z,51.22
2023-02-03T03:11:02.354Z,51.98
2023-02-03T03:14:06.701Z,50.42
2023-02-03T03:17:12.209Z,50.04
2023-02-03T03:20:22.634Z,51.06
2023-02-03T03:23:29.165Z,50.55
2023-02-03T03:26:50.851Z,50.32
2023-02-03T03:29:55.395Z,50.88
2023-02-03T03:32:58.662Z,50.64
2023-02-03T03:36:29.015Z,50.85
2023-02-03T03:39:45.637Z,51.71
2023-02-03T03:42:58.925Z,52.51
2023-02-03T03:46:06.979Z,51.64
2023-02-03T03:49:11.504Z,52.48
2023-02-03T03:52:18.863Z,52.77
2023-02-03T03:55:21.282Z,52.76
2023-02-03T03:58:27.527Z,53.21
2023-02-03T04:01:31.142Z,52.89
2023-02-03T04:04:35.889Z,52.71
2023-02-03T04:07:42.343Z,53.00
2023-02-03T04:10:44.855Z,53.25
2023-02-03T04:13:47.066Z,53.45
2023-02-03T04:16:49.601Z,52.86
2023-02-03T04:19:51.863Z,53.09
2023-02-03T04:22:54.195Z,52.63
2023-02-03T04:25:56.637Z,52.60
2023-02-03T04:28:58.873Z,51.90
2023-02-03T04:32:01.351Z,52.77
2023-02-03T04:35:05.810Z,52.46
2023-02-03T04:38:08.111Z,53.07
2023-02-03T04:41:10.479Z,52.52
2023-02-03T04:44:12.789Z,52.71
2023-02-03T04:47:15.692Z,54.01
2023-02-03T04:50:18.012Z,53.25
2023-02-03T04:53:20.341Z,54.75
2023-02-03T04:56:22.716Z,53.40
2023-02-03T04:59:25.066Z,53.03
2023-02-03T05:02:27.339Z,53.47
2023-02-03T05:05:29.712Z,52.93
2023-02-03T05:08:32.098Z,54.69
2023-02-03T05:11:34.454Z,54.16
2023-02-03T05:14:36.723Z,55.01
2023-02-03T05:17:40.253Z,53.77
2023-02-03T05:20:42.677Z,53.68
2023-02-03T05:23:45.094Z,52.67
2023-02-03T05:26:47.418Z,53.15
2023-02-03T05:29:49.668Z,53.77
2023-02-03T05:32:51.954Z,55.88
2023-02-03T05:35:54.333Z,54.64
2023-02-03T05:38:56.666Z,55.29
2023-02-03T05:41:59.282Z,52.61
2023-02-03T05:45:01.524Z,52.89
2023-02-03T05:48:04.143Z,53.04
2023-02-03T05:51:06.463Z,49.67
2023-02-03T05:54:08.983Z,53.19
2023-02-03T05:57:11.313Z,53.37
2023-02-03T06:00:15.065Z,52.26
2023-02-03T06:03:17.500Z,50.12
2023-02-03T06:06:19.812Z,51.01
2023-02-03T06:09:22.486Z,50.88
2023-02-03T06:12:25.663Z,50.32
2023-02-03T06:15:30.807Z,50.78
2023-02-03T06:18:33.135Z,49.89
2023-02-03T06:21:35.393Z,51.58
2023-02-03T06:24:37.731Z,50.54
2023-02-03T06:27:40.410Z,50.88
2023-02-03T06:30:43.451Z,51.33
2023-02-03T06:33:45.899Z,51.05
2023-02-03T06:36:49.261Z,50.46
2023-02-03T06:39:51.609Z,51.94
2023-02-03T06:42:53.939Z,49.69
2023-02-03T06:45:56.369Z,50.02
2023-02-03T06:48:58.885Z,50.95
2023-02-03T06:52:01.247Z,50.16
2023-02-03T06:55:05.005Z,49.88
2023-02-03T06:58:07.334Z,48.90
2023-02-03T07:01:09.863Z,49.83
2023-02-03T07:04:12.330Z,50.91
2023-02-03T07:07:14.864Z,50.76
2023-02-03T07:10:17.412Z,49.85
2023-02-03T07:13:19.681Z,50.41
2023-02-03T07:16:22.300Z,50.19
2023-02-03T07:19:24.664Z,48.88
2023-02-03T07:22:27.047Z,49.03
2023-02-03T07:25:29.354Z,48.97
2023-02-03T07:28:32.439Z,48.67
2023-02-03T07:31:35.919Z,50.38
2023-02-03T07:34:38.329Z,48.59
2023-02-03T07:37:41.239Z,48.82
2023-02-03T07:40:43.552Z,48.89
2023-02-03T07:43:46.061Z,48.86
2023-02-03T07:46:48.465Z,49.55
2023-02-03T07:49:50.866Z,48.35
2023-02-03T07:52:53.337Z,47.27
2023-02-03T07:55:55.695Z,49.26
2023-02-03T07:58:58.211Z,48.45
2023-02-03T08:02:00.665Z,47.92
2023-02-03T08:05:03.105Z,45.90
2023-02-03T08:08:05.497Z,44.65
2023-02-03T08:11:08.115Z,46.08
2023-02-03T08:14:10.539Z,45.55
2023-02-03T08:17:12.905Z,44.50
2023-02-03T08:20:16.591Z,45.17
2023-02-03T08:23:19.311Z,44.14
2023-02-03T08:26:21.722Z,42.33
2023-02-03T08:29:24.032Z,42.71
2023-02-03T08:32:26.702Z,43.61
2023-02-03T08:35:29.374Z,42.89
2023-02-03T08:38:32.343Z,42.90
2023-02-03T08:41:34.880Z,42.93
2023-02-03T08:44:39.116Z,42.40
2023-02-03T08:47:41.516Z,42.88
2023-02-03T08:50:44.613Z,43.54
2023-02-03T08:53:46.880Z,45.13
2023-02-03T08:56:49.311Z,43.40
2023-02-03T08:59:51.736Z,44.96
2023-02-03T09:02:54.092Z,46.10
2023-02-03T09:05:57.437Z,45.74
2023-02-03T09:08:59.833Z,48.22
2023-02-03T09:12:02.602Z,48.61
2023-02-03T09:15:06.498Z,50.34
2023-02-03T09:18:10.707Z,50.77
2023-02-03T09:21:27.490Z,53.18
2023-02-03T09:24:35.807Z,58.00
2023-02-03T09:27:38.235Z,57.90
2023-02-03T09:30:40.939Z,59.62
2023-02-03T09:33:43.850Z,61.57
2023-02-03T09:36:46.919Z,62.56
2023-02-03T09:39:49.234Z,64.64
2023-02-03T09:43:15.609Z,66.23
2023-02-03T09:46:23.191Z,66.64
2023-02-03T09:49:41.814Z,67.88
2023-02-03T09:52:44.462Z,67.14
2023-02-03T09:55:47.636Z,66.99
2023-02-03T09:58:50.130Z,67.20
2023-02-03T10:02:14.218Z,67.34
2023-02-03T10:05:21.802Z,67.67
2023-02-03T10:08:43.110Z,68.35
2023-02-03T10:12:17.959Z,68.21
2023-02-03T10:15:54.216Z,67.97
2023-02-03T10:18:58.942Z,68.02
2023-02-03T10:22:03.340Z,69.15
2023-02-03T10:25:14.735Z,69.01
2023-02-03T10:28:21.016Z,68.57
2023-02-03T10:31:28.001Z,68.52
2023-02-03T10:34:30.410Z,68.13
2023-02-03T10:37:37.596Z,68.81
2023-02-03T10:40:40.021Z,70.13
2023-02-03T10:43:48.280Z,69.37
2023-02-03T10:46:50.586Z,68.88
2023-02-03T10:49:54.479Z,68.50
2023-02-03T10:53:22.869Z,68.87
2023-02-03T10:56:29.503Z,68.68
2023-02-03T10:59:35.070Z,69.70
2023-02-03T11:02:37.455Z,69.96
2023-02-03T11:05:40.424Z,68.85
2023-02-03T11:08:46.425Z,69.08
2023-02-03T11:11:48.748Z,68.62
2023-02-03T11:14:52.799Z,70.30
2023-02-03T11:17:56.099Z,69.59
2023-02-03T11:20:59.089Z,71.43
2023-02-03T11:24:04.437Z,69.60
2023-02-03T11:27:10.653Z,70.53
2023-02-03T11:30:29.938Z,70.15
2023-02-03T11:33:33.557Z,70.47
2023-02-03T11:36:36.150Z,70.58
2023-02-03T11:39:39.197Z,70.18
2023-02-03T11:42:45.624Z,70.83
2023-02-03T11:45:56.057Z,69.05
2023-02-03T11:49:29.476Z,68.07
2023-02-03T11:53:03.927Z,69.73
2023-02-03T11:56:18.551Z,72.24
2023-02-03T11:59:29.754Z,70.72
2023-02-03T12:02:55.573Z,73.01
2023-02-03T12:06:03.863Z,70.81
2023-02-03T12:09:17.950Z,71.16
2023-02-03T12:12:20.166Z,73.46
2023-02-03T12:15:32.523Z,72.35
2023-02-03T12:18:56.996Z,72.18
2023-02-03T12:22:20.374Z,72.46
2023-02-03T12:25:47.020Z,72.33
2023-02-03T12:37:51.425Z,72.49
2023-02-03T12:41:08.264Z,72.77
2023-02-03T12:44:33.956Z,73.01
2023-02-03T12:47:53.151Z,73.14
2023-02-03T12:51:08.411Z,73.30
2023-02-03T12:54:59.692Z,72.57
2023-02-03T13:01:52.086Z,72.71
2023-02-03T13:08:33.761Z,73.11
2023-02-03T13:11:53.236Z,73.90
2023-02-03T13:15:19.038Z,73.99
2023-02-03T13:18:38.559Z,73.76
2023-02-03T13:21:52.426Z,73.64
2023-02-03T13:25:07.919Z,72.51
2023-02-03T13:28:20.050Z,73.71
2023-02-03T13:31:52.605Z,73.71
2023-02-03T13:35:32.361Z,73.43
2023-02-03T13:38:51.478Z,74.39
2023-02-03T13:42:13.190Z,75.21
2023-02-03T13:45:35.039Z,74.33
2023-02-03T13:48:37.789Z,74.05
2023-02-03T13:51:46.244Z,74.24
2023-02-03T13:54:48.531Z,73.88
2023-02-03T13:57:51.870Z,74.41
2023-02-03T14:00:55.396Z,74.71
2023-02-03T14:03:58.426Z,75.41
2023-02-03T14:07:03.041Z,74.68
2023-02-03T14:10:14.485Z,74.42
2023-02-03T14:13:24.593Z,75.25
2023-02-03T14:16:36.339Z,75.47
2023-02-03T14:20:19.112Z,74.73
2023-02-03T14:28:18.896Z,75.63
2023-02-03T14:31:56.639Z,76.56
2023-02-03T14:35:30.856Z,76.62
2023-02-03T14:38:41.313Z,76.77
2023-02-03T14:42:04.373Z,76.41
2023-02-03T14:45:23.830Z,77.21
2023-02-03T14:49:04.010Z,76.84
2023-02-03T14:52:12.284Z,75.91
2023-02-03T14:55:37.294Z,75.35
2023-02-03T14:58:46.334Z,75.44
2023-02-03T15:01:48.769Z,76.33
2023-02-03T15:04:54.230Z,74.47
2023-02-03T15:08:02.116Z,74.83
2023-02-03T15:11:22.314Z,74.99
2023-02-03T15:14:27.148Z,76.39
2023-02-03T15:17:41.634Z,75.92
2023-02-03T15:20:47.786Z,77.13
2023-02-03T15:23:59.368Z,77.47
2023-02-03T15:28:08.048Z,77.79
2023-02-03T15:31:38.055Z,78.37
2023-02-03T15:34:46.034Z,78.64
2023-02-03T15:37:56.228Z,78.91
2023-02-03T15:41:11.849Z,79.29
2023-02-03T15:44:26.837Z,78.97
2023-02-03T15:47:35.825Z,79.00
2023-02-03T15:50:48.880Z,78.50
2023-02-03T15:53:56.350Z,78.89
2023-02-03T15:57:05.698Z,78.69
2023-02-03T16:00:27.657Z,78.78
2023-02-03T16:03:39.324Z,78.97
2023-02-03T16:06:46.382Z,79.03
2023-02-03T16:09:53.032Z,78.66
2023-02-03T16:13:21.022Z,78.41
2023-02-03T16:16:32.297Z,77.94
2023-02-03T16:19:38.384Z,78.19
2023-02-03T16:22:44.037Z,77.88
2023-02-03T16:26:02.893Z,78.38
2023-02-03T16:29:26.941Z,77.82
2023-02-03T16:32:48.112Z,78.82
2023-02-03T16:36:09.114Z,77.97
2023-02-03T16:39:31.467Z,78.64
2023-02-03T16:42:58.077Z,77.83
2023-02-03T16:46:20.323Z,77.53
2023-02-03T16:49:41.337Z,77.73
2023-02-03T16:52:44.635Z,77.64
2023-02-03T16:55:48.182Z,77.64
2023-02-03T16:58:50.631Z,77.53
2023-02-03T17:01:53.044Z,77.08
2023-02-03T17:04:55.361Z,78.23
2023-02-03T17:07:57.683Z,77.79
2023-02-03T17:11:05.765Z,76.87
2023-02-03T17:14:09.729Z,77.33
2023-02-03T17:17:12.067Z,77.07
2023-02-03T17:20:14.418Z,76.25
2023-02-03T17:23:17.275Z,76.20
2023-02-03T17:26:19.876Z,77.37
2023-02-03T17:29:22.348Z,77.75
2023-02-03T17:32:24.829Z,76.82
2023-02-03T17:35:27.662Z,77.47
2023-02-03T17:38:30.931Z,77.78
2023-02-03T17:54:51.843Z,78.92
2023-02-03T17:57:54.082Z,78.74
2023-02-03T18:00:56.417Z,78.22
2023-02-03T18:04:03.664Z,78.64
2023-02-03T18:07:06.062Z,79.27
2023-02-03T18:10:08.982Z,79.27
2023-02-03T18:13:11.290Z,78.55
2023-02-03T18:16:17.621Z,78.07
2023-02-03T18:19:20.188Z,78.97
2023-02-03T18:22:22.669Z,77.88
2023-02-03T18:25:25.051Z,77.65
2023-02-03T18:28:30.228Z,78.20
2023-02-03T18:31:33.216Z,78.09
2023-02-03T18:34:35.688Z,78.51
2023-02-03T18:37:38.013Z,78.40
2023-02-03T18:40:40.311Z,77.88
2023-02-03T18:43:43.067Z,76.70
2023-02-03T18:46:45.338Z,77.35
2023-02-03T18:49:48.026Z,77.14
2023-02-03T18:52:53.801Z,77.34
2023-02-03T18:55:56.092Z,77.88
2023-02-03T18:58:58.409Z,77.64
2023-02-03T19:02:01.392Z,77.71
2023-02-03T19:05:04.404Z,76.71
2023-02-03T19:08:07.147Z,76.84
2023-02-03T19:11:09.454Z,76.65
2023-02-03T19:14:12.917Z,77.00
2023-02-03T19:17:15.279Z,76.69
2023-02-03T19:20:17.758Z,75.93
2023-02-03T19:23:20.088Z,74.01
2023-02-03T19:26:22.409Z,75.56
2023-02-03T19:29:24.722Z,75.35
2023-02-03T19:32:27.095Z,75.25
2023-02-03T19:35:29.536Z,74.41
2023-02-03T19:38:31.916Z,74.08
2023-02-03T19:41:36.442Z,73.18
2023-02-03T19:44:38.731Z,71.71
2023-02-03T19:47:41.014Z,71.58
2023-02-03T19:50:46.466Z,70.88
2023-02-03T19:53:48.744Z,71.40
2023-02-03T19:56:51.174Z,70.55
2023-02-03T19:59:53.491Z,69.78
2023-02-03T20:02:55.918Z,70.02
2023-02-03T20:05:59.589Z,70.24
2023-02-03T20:09:04.284Z,70.09
2023-02-03T20:12:06.628Z,69.71
2023-02-03T20:15:09.114Z,69.86
2023-02-03T20:18:11.413Z,69.51
2023-02-03T20:21:14.375Z,70.26
2023-02-03T20:24:17.027Z,68.10
2023-02-03T20:27:25.609Z,68.49
2023-02-03T20:30:37.840Z,69.34
2023-02-03T20:33:40.280Z,68.19
2023-02-03T20:36:53.769Z,69.99
2023-02-03T20:39:56.312Z,69.59
2023-02-03T20:43:02.680Z,69.80
2023-02-03T20:46:13.024Z,69.02
2023-02-03T20:49:16.993Z,69.91
2023-02-03T20:52:20.744Z,68.16
2023-02-03T20:55:23.983Z,68.35
2023-02-03T20:58:28.982Z,68.49
2023-02-03T21:01:31.346Z,68.79
2023-02-03T21:04:52.378Z,68.60
2023-02-03T21:07:55.144Z,68.43
2023-02-03T21:10:57.485Z,69.15
2023-02-03T21:13:59.836Z,67.29
2023-02-03T21:17:02.222Z,67.44
2023-02-03T21:20:22.331Z,66.30
2023-02-03T21:23:28.452Z,67.53
2023-02-03T21:26:34.208Z,66.08
2023-02-03T21:29:37.323Z,65.96
2023-02-03T21:32:41.014Z,66.04
2023-02-03T21:35:43.334Z,66.66
2023-02-03T21:38:58.019Z,65.26
2023-02-03T21:42:19.034Z,65.36
2023-02-03T21:45:47.657Z,65.93
2023-02-03T21:48:55.240Z,64.76
2023-02-03T21:51:57.767Z,64.28
2023-02-03T21:55:00.579Z,64.11
2023-02-03T21:58:31.865Z,65.82
2023-02-03T22:01:37.085Z,65.82
2023-02-03T22:04:41.604Z,65.15
2023-02-03T22:07:44.092Z,64.50
2023-02-03T22:10:47.061Z,64.02
2023-02-03T22:13:52.413Z,63.19
2023-02-03T22:16:54.746Z,63.36
2023-02-03T22:19:57.359Z,63.53
2023-02-03T22:22:59.778Z,64.36
2023-02-03T22:26:02.148Z,63.98
2023-02-03T22:29:05.695Z,64.83
2023-02-03T22:32:07.995Z,64.05
2023-02-03T22:35:10.617Z,65.50
2023-02-03T22:38:12.935Z,64.88
2023-02-03T22:41:15.362Z,64.82
2023-02-03T22:44:18.419Z,65.29
2023-02-03T22:47:22.029Z,64.24
2023-02-03T22:50:34.783Z,63.63
2023-02-03T22:53:39.554Z,64.08
2023-02-03T22:56:41.939Z,64.35
2023-02-03T22:59:44.263Z,63.83
2023-02-03T23:02:47.497Z,64.03
2023-02-03T23:05:49.858Z,63.18
2023-02-03T23:08:52.927Z,62.97
2023-02-03T23:11:55.162Z,62.31
2023-02-03T23:14:57.412Z,63.46
2023-02-03T23:17:59.679Z,64.04
2023-02-03T23:21:02.043Z,63.81
2023-02-03T23:24:04.548Z,63.13
2023-02-03T23:27:07.557Z,63.72
2023-02-03T23:30:10.785Z,63.62
2023-02-03T23:33:13.169Z,63.27
2023-02-03T23:36:15.402Z,62.85
2023-02-03T23:39:17.680Z,64.47
2023-02-03T23:42:20.086Z,63.96
2023-02-03T23:45:22.548Z,63.50
2023-02-03T23:48:24.871Z,63.47
2023-02-03T23:51:27.138Z,63.15
2023-02-03T23:54:29.511Z,64.26
2023-02-03T23:57:31.973Z,62.77
